Time;durP1;ratioP1;P1;durP2;ratioP2;P2;SDS_P1;SDS_P2;PMS_P1;PMS_P2;Temp;Humidity;BMP_temperature;BMP_pressure;BME280_temperature;BME280_humidity;BME280_pressure;Samples;Min_cycle;Max_cycle;Signal;HPM_P1;HPM_P2
2023/10/26 00:00:31;;;;;;;2.27;1.50;;;12.40;99.90;;;;;;5042052;28;20447;-76
2023/10/26 00:03:17;;;;;;;2.33;1.30;;;12.40;99.90;;;;;;5041050;28;20420;-76
2023/10/26 00:06:03;;;;;;;2.63;1.30;;;12.40;99.90;;;;;;5053527;28;20409;-76
2023/10/26 00:08:49;;;;;;;1.80;1.10;;;12.30;99.90;;;;;;5050186;28;20466;-76
2023/10/26 00:11:35;;;;;;;2.70;1.60;;;12.40;99.90;;;;;;5051856;28;20481;-76
2023/10/26 00:14:20;;;;;;;2.80;1.17;;;12.30;99.90;;;;;;5052679;28;20426;-77
2023/10/26 00:17:06;;;;;;;1.70;1.30;;;12.30;99.90;;;;;;5050955;28;20438;-79
2023/10/26 00:19:52;;;;;;;3.60;1.60;;;12.30;99.90;;;;;;5053405;28;20465;-76
2023/10/26 00:22:38;;;;;;;3.60;1.50;;;12.40;99.90;;;;;;5053570;28;20500;-77
2023/10/26 00:25:25;;;;;;;2.00;1.30;;;12.30;99.90;;;;;;5050021;28;21333;-76
2023/10/26 00:28:10;;;;;;;3.40;1.50;;;12.30;99.90;;;;;;5052755;28;20565;-77
2023/10/26 00:30:56;;;;;;;1.87;1.30;;;12.30;99.90;;;;;;5052067;28;20473;-76
2023/10/26 00:33:41;;;;;;;1.53;1.27;;;12.20;99.90;;;;;;5050743;28;20423;-76
2023/10/26 00:36:27;;;;;;;3.23;1.93;;;12.20;99.90;;;;;;5053090;28;20434;-75
2023/10/26 00:39:13;;;;;;;2.50;1.50;;;12.30;99.90;;;;;;5052563;28;20454;-77
2023/10/26 00:42:00;;;;;;;2.10;1.40;;;12.20;99.90;;;;;;5051304;28;20430;-77
2023/10/26 00:44:46;;;;;;;2.40;1.50;;;12.10;99.90;;;;;;5053007;28;20485;-76
2023/10/26 00:47:32;;;;;;;7.20;1.93;;;12.20;99.90;;;;;;5052410;28;20800;-76
2023/10/26 00:50:18;;;;;;;3.03;1.90;;;12.10;99.90;;;;;;5050895;28;20446;-77
2023/10/26 00:53:04;;;;;;;2.07;1.60;;;12.10;99.90;;;;;;5052733;28;20434;-77
2023/10/26 00:55:52;;;;;;;3.90;2.20;;;12.10;99.90;;;;;;5052879;28;20961;-77
2023/10/26 00:58:39;;;;;;;2.10;1.50;;;12.10;99.90;;;;;;5047561;28;20509;-76
2023/10/26 01:01:25;;;;;;;3.00;1.90;;;12.00;99.90;;;;;;5050366;28;20550;-77
2023/10/26 01:04:14;;;;;;;11.33;1.63;;;12.00;99.90;;;;;;5049705;28;20562;-77
2023/10/26 01:07:00;;;;;;;1.80;1.40;;;12.10;99.90;;;;;;5048125;28;20439;-76
2023/10/26 01:09:47;;;;;;;2.83;2.57;;;12.10;99.90;;;;;;5047303;28;20496;-76
2023/10/26 01:12:33;;;;;;;2.43;2.07;;;12.10;99.90;;;;;;5049168;28;20614;-76
2023/10/26 01:15:21;;;;;;;2.13;1.47;;;12.10;99.90;;;;;;5049421;28;20493;-76
2023/10/26 01:18:07;;;;;;;10.07;1.90;;;12.10;99.90;;;;;;5048866;28;20464;-76
2023/10/26 01:20:54;;;;;;;2.80;1.43;;;12.10;99.90;;;;;;5047320;28;20805;-76
2023/10/26 01:23:40;;;;;;;4.30;2.80;;;12.10;99.90;;;;;;5046815;28;20446;-75
2023/10/26 01:26:26;;;;;;;3.57;1.70;;;12.20;99.90;;;;;;5044407;28;20446;-74
2023/10/26 01:29:12;;;;;;;2.40;1.80;;;12.20;99.90;;;;;;5049480;28;20448;-77
2023/10/26 01:31:57;;;;;;;2.23;1.30;;;12.10;99.90;;;;;;5045652;28;20952;-77
2023/10/26 01:34:43;;;;;;;3.20;1.53;;;12.10;99.90;;;;;;5053463;28;20442;-76
2023/10/26 01:37:29;;;;;;;2.20;1.70;;;12.00;99.90;;;;;;5050781;28;20799;-76
2023/10/26 01:40:16;;;;;;;2.43;1.23;;;12.00;99.90;;;;;;5047909;28;20845;-76
2023/10/26 01:43:02;;;;;;;2.70;1.63;;;12.00;99.90;;;;;;5056441;28;21038;-76
2023/10/26 01:45:47;;;;;;;2.00;1.70;;;12.00;99.90;;;;;;5053767;28;20448;-76
2023/10/26 01:48:33;;;;;;;3.90;1.80;;;11.90;99.90;;;;;;5050045;28;20529;-75
2023/10/26 01:51:18;;;;;;;2.70;1.97;;;11.80;99.90;;;;;;5047808;28;20603;-77
2023/10/26 01:54:04;;;;;;;1.93;1.57;;;11.80;99.90;;;;;;5048444;28;20445;-74
2023/10/26 01:56:51;;;;;;;3.50;2.37;;;11.80;99.90;;;;;;5047821;28;20568;-76
2023/10/26 01:59:37;;;;;;;2.17;1.67;;;11.80;99.90;;;;;;5048333;28;20470;-76
2023/10/26 02:02:23;;;;;;;2.90;1.70;;;11.80;99.90;;;;;;5049276;28;20446;-77
2023/10/26 02:05:09;;;;;;;3.83;1.87;;;11.80;99.90;;;;;;5048680;28;20580;-76
2023/10/26 02:07:54;;;;;;;4.40;1.97;;;11.80;99.90;;;;;;5051027;28;20455;-76
2023/10/26 02:10:41;;;;;;;3.80;2.20;;;11.80;99.90;;;;;;5048633;28;20433;-77
2023/10/26 02:13:28;;;;;;;2.60;2.17;;;11.80;99.90;;;;;;5050892;28;20581;-76
2023/10/26 02:16:14;;;;;;;2.40;2.10;;;11.80;99.90;;;;;;5050975;28;20928;-76
2023/10/26 02:18:59;;;;;;;2.73;2.33;;;11.80;99.90;;;;;;5050630;28;20618;-75
2023/10/26 02:21:45;;;;;;;4.77;2.43;;;11.80;99.90;;;;;;5050703;28;20961;-77
2023/10/26 02:24:31;;;;;;;3.03;2.73;;;11.80;99.90;;;;;;5051805;28;20442;-76
2023/10/26 02:27:16;;;;;;;3.70;2.33;;;11.70;99.90;;;;;;5047802;28;20459;-75
2023/10/26 02:30:04;;;;;;;4.00;2.03;;;11.70;99.90;;;;;;5048998;28;20468;-75
2023/10/26 02:32:49;;;;;;;3.67;2.77;;;11.70;99.90;;;;;;5047959;28;20597;-77
2023/10/26 02:35:35;;;;;;;4.47;2.37;;;11.60;99.90;;;;;;5049936;28;21001;-76
2023/10/26 02:38:21;;;;;;;3.47;2.27;;;11.70;99.90;;;;;;5045898;28;20969;-76
2023/10/26 02:41:07;;;;;;;2.70;2.10;;;11.60;99.90;;;;;;5046310;28;20687;-75
2023/10/26 02:43:53;;;;;;;4.00;2.17;;;11.70;99.90;;;;;;5045557;28;20589;-76
2023/10/26 02:46:40;;;;;;;3.10;2.30;;;11.80;99.90;;;;;;5049084;28;20445;-76
2023/10/26 02:49:25;;;;;;;3.07;1.90;;;11.70;99.90;;;;;;5047435;28;20964;-77
2023/10/26 02:52:11;;;;;;;2.03;1.73;;;11.70;99.90;;;;;;5050048;28;20474;-77
2023/10/26 02:54:57;;;;;;;8.10;2.33;;;11.60;99.90;;;;;;5045108;28;20504;-75
2023/10/26 02:57:43;;;;;;;2.73;2.07;;;11.60;99.90;;;;;;5047592;28;20482;-77
2023/10/26 03:00:29;;;;;;;2.53;2.00;;;11.60;99.90;;;;;;5050589;28;20466;-76
2023/10/26 03:03:16;;;;;;;2.87;2.23;;;11.60;99.90;;;;;;5049976;28;20442;-77
2023/10/26 03:06:02;;;;;;;2.50;1.80;;;11.50;99.90;;;;;;5051105;28;20469;-77
2023/10/26 03:08:48;;;;;;;2.77;2.07;;;11.50;99.90;;;;;;5049251;28;20458;-77
2023/10/26 03:11:33;;;;;;;5.00;2.10;;;11.50;99.90;;;;;;5050107;28;21048;-77
2023/10/26 03:14:19;;;;;;;2.27;1.70;;;11.50;99.90;;;;;;5050558;28;20447;-76
2023/10/26 03:17:05;;;;;;;2.60;1.93;;;11.50;99.90;;;;;;5051257;28;20446;-77
2023/10/26 03:19:52;;;;;;;5.10;2.70;;;11.40;99.90;;;;;;5045057;28;20803;-77
2023/10/26 03:22:38;;;;;;;3.90;2.13;;;11.40;99.90;;;;;;5049856;28;21008;-78
2023/10/26 03:25:24;;;;;;;4.43;2.17;;;11.30;99.90;;;;;;5049450;28;20558;-77
2023/10/26 03:28:10;;;;;;;6.53;2.57;;;11.40;99.90;;;;;;5047786;28;20445;-76
2023/10/26 03:30:55;;;;;;;3.47;2.27;;;11.40;99.90;;;;;;5049233;28;20420;-76
2023/10/26 03:33:41;;;;;;;3.63;2.03;;;11.40;99.90;;;;;;5042863;28;20590;-77
2023/10/26 03:36:28;;;;;;;2.70;2.00;;;11.40;99.90;;;;;;5047803;28;20446;-77
2023/10/26 03:39:14;;;;;;;2.83;2.20;;;11.40;99.90;;;;;;5048424;28;20802;-77
2023/10/26 03:42:00;;;;;;;3.17;2.20;;;11.40;99.90;;;;;;5054143;28;20449;-76
2023/10/26 03:44:45;;;;;;;2.60;2.20;;;11.40;99.90;;;;;;5053330;28;20446;-77
2023/10/26 03:47:31;;;;;;;6.00;2.43;;;11.40;99.90;;;;;;5054435;28;20461;-76
2023/10/26 03:50:16;;;;;;;2.97;1.97;;;11.40;99.90;;;;;;5055969;28;20592;-77
2023/10/26 03:53:03;;;;;;;3.27;1.90;;;11.50;99.90;;;;;;5047333;28;20486;-77
2023/10/26 03:55:49;;;;;;;2.30;1.70;;;11.50;99.90;;;;;;5051195;28;20959;-77
2023/10/26 03:58:35;;;;;;;2.83;1.80;;;11.40;99.90;;;;;;5053630;28;20446;-77
2023/10/26 04:01:20;;;;;;;3.83;2.07;;;11.30;99.90;;;;;;5050541;28;20575;-76
2023/10/26 04:04:07;;;;;;;3.10;1.70;;;11.40;99.90;;;;;;5049459;28;20438;-76
2023/10/26 04:06:52;;;;;;;1.90;1.50;;;11.30;99.90;;;;;;5050224;28;20417;-77
2023/10/26 04:09:39;;;;;;;1.93;1.37;;;11.30;99.90;;;;;;5050831;28;20458;-75
2023/10/26 04:12:25;;;;;;;4.40;1.70;;;11.20;99.90;;;;;;5053683;28;21024;-77
2023/10/26 04:15:11;;;;;;;2.93;2.20;;;11.10;99.90;;;;;;5051091;28;20569;-77
2023/10/26 04:17:56;;;;;;;2.73;1.80;;;11.10;99.90;;;;;;5053924;28;20453;-77
2023/10/26 04:20:42;;;;;;;2.97;2.00;;;11.10;99.90;;;;;;5053123;28;21034;-76
2023/10/26 04:23:28;;;;;;;2.10;1.60;;;11.10;99.90;;;;;;5050396;28;20442;-76
2023/10/26 04:26:15;;;;;;;2.10;1.60;;;11.10;99.90;;;;;;5053207;28;20444;-76
2023/10/26 04:29:00;;;;;;;3.83;2.00;;;11.10;99.90;;;;;;5053174;28;20469;-76
2023/10/26 04:31:45;;;;;;;2.90;1.53;;;11.10;99.90;;;;;;5054562;28;20548;-76
2023/10/26 04:34:31;;;;;;;2.10;1.70;;;11.10;99.90;;;;;;5050819;28;20441;-76
2023/10/26 04:37:17;;;;;;;3.30;2.00;;;11.10;99.90;;;;;;5054129;28;20596;-76
2023/10/26 04:40:03;;;;;;;2.47;1.70;;;11.10;99.90;;;;;;5051686;28;20572;-76
2023/10/26 04:42:50;;;;;;;2.00;1.60;;;11.20;99.90;;;;;;5051332;28;20592;-76
2023/10/26 04:45:36;;;;;;;5.53;1.93;;;11.30;99.90;;;;;;5049636;28;20503;-76
2023/10/26 04:48:22;;;;;;;3.40;2.03;;;11.20;99.90;;;;;;5049655;28;20429;-76
2023/10/26 04:51:08;;;;;;;2.40;1.80;;;11.20;99.90;;;;;;5055045;28;21029;-76
2023/10/26 04:53:54;;;;;;;3.03;1.60;;;11.10;99.90;;;;;;5050624;28;20846;-76
2023/10/26 04:56:41;;;;;;;12.20;1.70;;;11.10;99.90;;;;;;5055519;28;21323;-76
2023/10/26 04:59:28;;;;;;;3.17;1.30;;;11.10;99.90;;;;;;5050724;28;20499;-76
2023/10/26 05:02:14;;;;;;;3.40;1.60;;;11.10;99.90;;;;;;5049652;28;20417;-76
2023/10/26 05:04:59;;;;;;;4.50;1.70;;;11.00;99.90;;;;;;5049599;28;20689;-76
2023/10/26 05:07:45;;;;;;;2.53;1.60;;;11.10;99.90;;;;;;5047408;28;20445;-76
2023/10/26 05:10:30;;;;;;;3.00;1.60;;;11.00;99.90;;;;;;5049803;28;20470;-76
2023/10/26 05:13:16;;;;;;;2.60;1.50;;;11.00;99.90;;;;;;5048558;28;20469;-76
2023/10/26 05:16:04;;;;;;;4.43;1.70;;;11.10;99.90;;;;;;5051281;28;20454;-76
2023/10/26 05:18:49;;;;;;;2.40;1.60;;;11.00;99.90;;;;;;5047346;28;20560;-76
2023/10/26 05:21:35;;;;;;;3.93;1.40;;;11.00;99.90;;;;;;5048757;28;22310;-75
2023/10/26 05:24:21;;;;;;;2.67;1.80;;;10.90;99.90;;;;;;5051889;28;20446;-76
2023/10/26 05:27:06;;;;;;;1.87;1.47;;;10.80;99.90;;;;;;5048943;28;20757;-76
2023/10/26 05:29:53;;;;;;;3.57;1.80;;;10.80;99.90;;;;;;5052169;28;20429;-76
2023/10/26 05:32:40;;;;;;;2.50;1.37;;;10.80;99.90;;;;;;5050825;28;20999;-76
2023/10/26 05:35:26;;;;;;;2.00;1.47;;;10.80;99.90;;;;;;5054129;28;20518;-76
2023/10/26 05:38:12;;;;;;;1.83;1.20;;;10.80;99.90;;;;;;5052101;28;20453;-76
2023/10/26 05:40:58;;;;;;;4.00;1.73;;;10.80;99.90;;;;;;5048055;28;21160;-76
2023/10/26 05:43:43;;;;;;;6.23;1.67;;;10.80;99.90;;;;;;5042305;28;20447;-76
2023/10/26 05:46:29;;;;;;;1.97;1.40;;;10.80;99.90;;;;;;5045973;28;20453;-76
2023/10/26 05:49:16;;;;;;;2.10;1.50;;;10.80;99.90;;;;;;5044075;28;20469;-76
2023/10/26 05:52:03;;;;;;;1.90;1.20;;;10.70;99.90;;;;;;5046997;28;20458;-76
2023/10/26 05:54:49;;;;;;;3.83;1.20;;;10.70;99.90;;;;;;5051479;28;20446;-76
2023/10/26 05:57:34;;;;;;;4.63;1.27;;;10.70;99.90;;;;;;5053417;28;20795;-76
2023/10/26 06:00:20;;;;;;;7.00;1.80;;;10.80;99.90;;;;;;5045866;28;20457;-76
2023/10/26 06:03:06;;;;;;;1.73;1.27;;;10.70;99.90;;;;;;5046131;28;20464;-76
2023/10/26 06:05:59;;;;;;;3.53;1.30;;;10.70;99.90;;;;;;5048097;28;20502;-76
2023/10/26 06:08:46;;;;;;;6.33;1.50;;;10.70;99.90;;;;;;5049229;28;20519;-76
2023/10/26 06:11:31;;;;;;;2.50;1.37;;;10.60;99.90;;;;;;5047161;28;20446;-76
2023/10/26 06:14:17;;;;;;;2.20;1.40;;;10.70;99.90;;;;;;5051032;28;20569;-75
2023/10/26 06:17:03;;;;;;;2.00;1.20;;;10.60;99.90;;;;;;5047093;28;20972;-76
2023/10/26 06:19:48;;;;;;;2.17;1.50;;;10.60;99.90;;;;;;5042360;28;20482;-76
2023/10/26 06:22:36;;;;;;;4.93;1.30;;;10.60;99.90;;;;;;5050064;28;20442;-76
2023/10/26 06:25:21;;;;;;;4.97;1.27;;;10.70;99.90;;;;;;5044295;28;20459;-76
2023/10/26 06:28:07;;;;;;;2.13;1.20;;;10.70;99.90;;;;;;5047494;28;20552;-76
2023/10/26 06:30:53;;;;;;;1.80;1.20;;;10.80;99.90;;;;;;5046033;28;20956;-76
2023/10/26 06:33:39;;;;;;;16.63;2.23;;;10.80;99.90;;;;;;5047365;28;20445;-76
2023/10/26 06:36:24;;;;;;;2.07;1.73;;;10.90;99.90;;;;;;5048632;28;20550;-76
2023/10/26 06:39:11;;;;;;;11.60;2.23;;;10.90;99.90;;;;;;5049596;28;20519;-76
2023/10/26 06:41:57;;;;;;;2.30;1.77;;;10.90;99.90;;;;;;5052662;28;21100;-76
2023/10/26 06:44:43;;;;;;;4.00;2.10;;;10.90;99.90;;;;;;5048146;28;20438;-76
2023/10/26 06:47:28;;;;;;;2.00;1.60;;;10.90;99.90;;;;;;5050645;28;20420;-76
2023/10/26 06:50:14;;;;;;;2.00;1.53;;;10.90;99.90;;;;;;5043368;28;20453;-76
2023/10/26 06:53:00;;;;;;;1.73;1.10;;;10.90;99.90;;;;;;5046667;28;20500;-76
2023/10/26 06:55:47;;;;;;;3.03;1.13;;;10.90;99.90;;;;;;5047877;28;20956;-76
2023/10/26 06:58:32;;;;;;;17.13;2.00;;;11.00;99.90;;;;;;5048348;28;20511;-76
2023/10/26 07:01:18;;;;;;;4.20;1.90;;;11.10;99.90;;;;;;5048287;28;20529;-76
2023/10/26 07:04:04;;;;;;;7.00;3.30;;;11.10;99.90;;;;;;5042701;28;20418;-76
2023/10/26 07:06:49;;;;;;;3.77;2.00;;;11.10;99.90;;;;;;5038291;28;20577;-76
2023/10/26 07:09:36;;;;;;;3.40;2.33;;;11.20;99.90;;;;;;5047339;28;20466;-76
2023/10/26 07:12:23;;;;;;;2.87;2.43;;;11.20;99.90;;;;;;5043171;28;20572;-76
2023/10/26 07:15:09;;;;;;;4.33;2.40;;;11.20;99.90;;;;;;5049677;28;20435;-76
2023/10/26 07:17:54;;;;;;;3.57;2.27;;;11.20;99.90;;;;;;5045377;28;20525;-76
2023/10/26 07:20:40;;;;;;;4.83;2.10;;;11.20;99.90;;;;;;5050871;28;20478;-76
2023/10/26 07:23:25;;;;;;;4.10;2.03;;;11.20;99.90;;;;;;5043806;28;20820;-76
2023/10/26 07:26:15;;;;;;;3.20;1.70;;;11.20;99.90;;;;;;5043417;28;20447;-76
2023/10/26 07:29:02;;;;;;;2.20;1.70;;;11.20;99.90;;;;;;5034324;28;20474;-76
2023/10/26 07:31:48;;;;;;;1.80;1.60;;;11.30;99.90;;;;;;5036016;28;20496;-76
2023/10/26 07:34:33;;;;;;;7.03;1.93;;;11.40;99.90;;;;;;5049383;28;20900;-76
2023/10/26 07:37:19;;;;;;;2.53;1.93;;;11.30;99.90;;;;;;5044005;28;20533;-76
2023/10/26 07:40:07;;;;;;;2.50;2.00;;;11.20;99.90;;;;;;5041136;28;20583;-76
2023/10/26 07:42:53;;;;;;;2.77;2.20;;;11.10;99.90;;;;;;5042145;28;20412;-76
2023/10/26 07:45:40;;;;;;;2.43;1.93;;;11.20;99.90;;;;;;5044341;28;20866;-76
2023/10/26 07:48:25;;;;;;;2.63;2.00;;;11.20;99.90;;;;;;5043642;28;20448;-76
2023/10/26 07:51:11;;;;;;;6.87;2.07;;;11.30;99.90;;;;;;5037736;28;20425;-76
2023/10/26 07:53:57;;;;;;;3.40;2.17;;;11.30;99.90;;;;;;5041164;28;20447;-76
2023/10/26 07:56:42;;;;;;;2.37;2.03;;;11.40;99.90;;;;;;5045092;28;20439;-76
2023/10/26 07:59:30;;;;;;;4.00;2.30;;;11.40;99.90;;;;;;5044705;28;20489;-76
2023/10/26 08:02:17;;;;;;;6.13;2.73;;;11.40;99.90;;;;;;5041213;28;20450;-76
2023/10/26 08:05:03;;;;;;;3.43;2.50;;;11.50;99.90;;;;;;5037378;28;20414;-76
2023/10/26 08:07:49;;;;;;;4.43;3.17;;;11.60;99.90;;;;;;5044505;28;20524;-76
2023/10/26 08:10:37;;;;;;;3.80;2.90;;;11.50;99.90;;;;;;5045736;28;20508;-76
2023/10/26 08:13:22;;;;;;;4.33;2.67;;;11.50;99.90;;;;;;5045899;28;20473;-76
2023/10/26 08:16:08;;;;;;;3.60;2.90;;;11.60;99.90;;;;;;5037276;28;20534;-76
2023/10/26 08:18:55;;;;;;;10.47;2.67;;;11.70;99.90;;;;;;5044108;28;20486;-76
2023/10/26 08:21:41;;;;;;;5.77;2.70;;;11.70;99.90;;;;;;5046660;28;20447;-76
2023/10/26 08:24:28;;;;;;;8.40;3.80;;;11.80;99.90;;;;;;5042502;28;20438;-76
2023/10/26 08:27:13;;;;;;;6.10;2.97;;;11.80;99.90;;;;;;5046019;28;20532;-76
2023/10/26 08:29:59;;;;;;;6.90;3.43;;;11.90;99.90;;;;;;5055376;28;20466;-76
2023/10/26 08:32:44;;;;;;;3.97;3.37;;;11.90;99.90;;;;;;5051720;28;20420;-76
2023/10/26 08:35:31;;;;;;;3.73;3.33;;;11.80;99.90;;;;;;5047538;28;20424;-76
2023/10/26 08:38:17;;;;;;;6.10;3.50;;;11.80;99.90;;;;;;5047358;28;20573;-76
2023/10/26 08:41:03;;;;;;;4.40;3.60;;;11.90;99.90;;;;;;5044200;28;20445;-75
2023/10/26 08:43:49;;;;;;;4.50;3.00;;;12.00;99.90;;;;;;5047162;28;20435;-76
2023/10/26 08:46:34;;;;;;;4.17;3.10;;;12.10;99.90;;;;;;5047575;28;20499;-76
2023/10/26 08:49:22;;;;;;;5.40;2.97;;;12.10;99.90;;;;;;5044285;28;20494;-76
2023/10/26 08:52:09;;;;;;;3.63;2.90;;;12.10;99.90;;;;;;5038768;28;20450;-76
2023/10/26 08:54:55;;;;;;;3.23;2.83;;;12.10;99.90;;;;;;5050634;28;20473;-76
2023/10/26 08:57:48;;;;;;;6.43;3.40;;;12.20;99.90;;;;;;5049182;28;20486;-76
2023/10/26 09:00:37;;;;;;;4.83;3.47;;;12.20;99.90;;;;;;5050623;28;20519;-76
2023/10/26 09:03:22;;;;;;;3.80;3.40;;;12.20;99.90;;;;;;5047983;28;20488;-76
2023/10/26 09:06:08;;;;;;;4.40;3.80;;;12.30;99.90;;;;;;5042988;28;20493;-76
2023/10/26 09:09:04;;;;;;;4.97;3.80;;;12.30;99.90;;;;;;5050745;28;20466;-76
2023/10/26 09:11:50;;;;;;;5.70;4.80;;;12.30;99.90;;;;;;5048922;28;20446;-76
2023/10/26 09:14:36;;;;;;;7.40;3.90;;;12.30;99.90;;;;;;5040803;28;20963;-76
2023/10/26 09:17:26;;;;;;;5.30;4.80;;;12.40;99.90;;;;;;5044600;28;20493;-76
2023/10/26 09:20:20;;;;;;;6.43;5.13;;;12.40;99.90;;;;;;5050947;28;20499;-76
2023/10/26 09:23:06;;;;;;;6.40;4.93;;;12.30;99.90;;;;;;5051918;28;20416;-76
2023/10/26 09:25:58;;;;;;;8.20;4.40;;;12.30;99.90;;;;;;5047877;28;20533;-76
2023/10/26 09:28:51;;;;;;;6.90;4.37;;;12.30;99.90;;;;;;5045219;28;20580;-75
2023/10/26 09:31:52;;;;;;;6.67;5.07;;;12.30;99.90;;;;;;5050372;28;20791;-76
2023/10/26 09:34:42;;;;;;;7.00;4.93;;;12.40;99.90;;;;;;5044858;28;20481;-76
2023/10/26 09:37:28;;;;;;;5.60;4.40;;;12.40;99.90;;;;;;5048568;28;20429;-76
2023/10/26 09:40:14;;;;;;;5.33;4.20;;;12.50;99.90;;;;;;5042763;28;20519;-76
2023/10/26 09:43:01;;;;;;;5.10;4.30;;;12.50;99.90;;;;;;5049227;28;20437;-77
2023/10/26 09:45:46;;;;;;;8.93;4.30;;;12.50;99.90;;;;;;5050147;28;20417;-76
2023/10/26 09:48:32;;;;;;;4.50;3.60;;;12.50;99.90;;;;;;5049603;28;20454;-76
2023/10/26 09:51:19;;;;;;;8.43;4.47;;;12.50;99.90;;;;;;5048909;28;20565;-76
2023/10/26 09:54:08;;;;;;;8.33;4.30;;;12.60;99.90;;;;;;5048114;28;20470;-76
2023/10/26 09:57:00;;;;;;;7.67;4.00;;;12.60;99.90;;;;;;5046706;28;20456;-76
2023/10/26 09:59:52;;;;;;;10.63;4.77;;;12.70;99.90;;;;;;5050449;28;20460;-76
2023/10/26 10:02:38;;;;;;;5.97;5.13;;;12.70;99.90;;;;;;5044742;28;20953;-76
2023/10/26 10:05:37;;;;;;;8.17;4.83;;;12.60;99.90;;;;;;5047581;28;20430;-76
2023/10/26 10:08:59;;;;;;;7.27;4.80;;;12.60;99.90;;;;;;5043331;28;20830;-76
2023/10/26 10:11:45;;;;;;;4.80;4.00;;;12.60;99.90;;;;;;5046175;28;20427;-75
2023/10/26 10:15:00;;;;;;;4.60;3.97;;;12.50;99.90;;;;;;5048242;28;21004;-76
2023/10/26 10:18:16;;;;;;;5.20;3.80;;;12.60;99.90;;;;;;5045636;28;20932;-75
2023/10/26 10:21:43;;;;;;;9.70;4.17;;;12.60;99.90;;;;;;5073746;22;20531;-73
2023/10/26 10:24:50;;;;;;;8.03;4.87;;;12.60;99.90;;;;;;5069661;28;20775;-73
2023/10/26 10:27:36;;;;;;;7.83;5.00;;;12.60;99.90;;;;;;5067800;28;20447;-73
2023/10/26 10:30:29;;;;;;;11.53;5.40;;;12.60;99.90;;;;;;5047475;28;20461;-73
2023/10/26 10:33:22;;;;;;;9.67;5.57;;;12.40;99.90;;;;;;5042899;28;20558;-73
2023/10/26 10:36:09;;;;;;;7.60;5.87;;;12.40;99.90;;;;;;5042313;28;20455;-73
2023/10/26 10:39:21;;;;;;;8.00;6.00;;;12.50;99.90;;;;;;5036473;28;20405;-73
2023/10/26 10:42:11;;;;;;;7.90;5.67;;;12.50;99.90;;;;;;5036976;28;20538;-73
2023/10/26 10:44:57;;;;;;;8.20;6.10;;;12.60;99.90;;;;;;5036545;28;20426;-73
2023/10/26 10:47:46;;;;;;;6.43;5.23;;;12.60;99.90;;;;;;5035720;28;20956;-74
2023/10/26 10:50:32;;;;;;;11.43;5.50;;;12.60;99.90;;;;;;5041431;28;20459;-73
2023/10/26 10:53:18;;;;;;;9.20;6.27;;;12.70;99.90;;;;;;5037997;28;20438;-73
2023/10/26 10:56:04;;;;;;;7.60;5.90;;;12.90;99.90;;;;;;5044913;28;20427;-73
2023/10/26 10:58:50;;;;;;;8.10;6.30;;;13.00;99.90;;;;;;5046708;28;20402;-73
2023/10/26 11:01:36;;;;;;;9.60;6.83;;;13.00;99.90;;;;;;5040165;28;20568;-74
2023/10/26 11:04:23;;;;;;;8.50;5.97;;;13.10;99.90;;;;;;5040028;28;20426;-73
2023/10/26 11:07:08;;;;;;;7.50;5.70;;;13.20;99.90;;;;;;5037324;28;20914;-73
2023/10/26 11:09:58;;;;;;;4.80;4.30;;;13.20;99.90;;;;;;5039861;28;20472;-73
2023/10/26 11:12:51;;;;;;;13.33;5.50;;;13.20;99.90;;;;;;5042971;28;20406;-74
2023/10/26 11:15:38;;;;;;;9.53;3.70;;;13.30;99.90;;;;;;5041118;28;20452;-73
2023/10/26 11:18:24;;;;;;;5.30;2.67;;;13.20;99.90;;;;;;5039913;28;20461;-73
2023/10/26 11:21:17;;;;;;;3.93;2.63;;;13.10;99.90;;;;;;5036756;28;20822;-73
2023/10/26 11:24:03;;;;;;;3.70;1.97;;;13.10;99.90;;;;;;5041509;28;20538;-73
2023/10/26 11:27:09;;;;;;;2.83;1.80;;;13.20;99.90;;;;;;5038684;28;20418;-73
2023/10/26 11:30:03;;;;;;;3.80;2.33;;;13.30;99.90;;;;;;5040016;28;20465;-73
2023/10/26 11:32:49;;;;;;;6.10;2.50;;;13.30;99.90;;;;;;5045295;28;20449;-74
2023/10/26 11:35:43;;;;;;;9.63;3.20;;;13.20;99.90;;;;;;5038513;28;20471;-74
2023/10/26 11:38:31;;;;;;;6.03;3.47;;;13.20;99.90;;;;;;5039569;28;20406;-73
2023/10/26 11:41:21;;;;;;;4.60;3.20;;;13.20;99.90;;;;;;5041659;28;20489;-73
2023/10/26 11:44:24;;;;;;;3.80;2.40;;;13.10;99.90;;;;;;5041843;28;20921;-73
2023/10/26 11:47:09;;;;;;;3.40;2.53;;;13.10;99.90;;;;;;5042260;28;20954;-73
2023/10/26 11:49:55;;;;;;;2.93;2.07;;;13.10;99.90;;;;;;5041262;28;20810;-73
2023/10/26 11:52:40;;;;;;;4.10;1.90;;;13.00;99.90;;;;;;5035960;28;20456;-73
2023/10/26 11:55:29;;;;;;;7.43;2.80;;;13.00;99.90;;;;;;5048771;28;20494;-73
2023/10/26 11:58:15;;;;;;;3.13;2.33;;;13.00;99.90;;;;;;5037895;28;20849;-73
2023/10/26 12:01:03;;;;;;;3.27;2.10;;;13.10;99.90;;;;;;5044168;28;20458;-73
2023/10/26 12:03:48;;;;;;;3.10;2.00;;;13.00;99.90;;;;;;5041073;28;20840;-73
2023/10/26 12:06:34;;;;;;;3.70;1.80;;;12.80;99.90;;;;;;5049852;28;20477;-73
2023/10/26 12:09:21;;;;;;;8.70;2.00;;;12.80;99.90;;;;;;5047400;28;20508;-73
2023/10/26 12:12:08;;;;;;;2.80;2.33;;;12.80;99.90;;;;;;5045433;28;20460;-73
2023/10/26 12:14:54;;;;;;;3.97;1.93;;;12.80;99.90;;;;;;5040519;28;20471;-73
2023/10/26 12:17:39;;;;;;;4.30;2.17;;;12.80;99.90;;;;;;5045071;28;20405;-73
2023/10/26 12:20:25;;;;;;;3.10;2.07;;;12.80;99.90;;;;;;5042912;28;20544;-73
2023/10/26 12:23:11;;;;;;;8.67;2.43;;;12.90;99.90;;;;;;5045295;28;20435;-73
2023/10/26 12:25:57;;;;;;;4.70;2.00;;;12.90;99.90;;;;;;5045778;28;20470;-73
2023/10/26 12:28:44;;;;;;;4.47;2.80;;;12.90;99.90;;;;;;5050006;28;20783;-73
2023/10/26 12:31:29;;;;;;;4.13;1.83;;;12.90;99.90;;;;;;5043558;28;20495;-73
2023/10/26 12:34:15;;;;;;;3.60;2.37;;;12.90;99.90;;;;;;5048424;28;20453;-73
2023/10/26 12:37:01;;;;;;;3.03;2.20;;;12.90;99.90;;;;;;5040888;28;20496;-73
2023/10/26 12:39:47;;;;;;;4.47;2.70;;;12.90;99.90;;;;;;5046381;28;20483;-73
2023/10/26 12:42:33;;;;;;;4.13;2.30;;;12.90;99.90;;;;;;5043283;28;20525;-73
2023/10/26 12:45:20;;;;;;;4.00;1.90;;;13.00;99.90;;;;;;5042076;28;21042;-73
2023/10/26 12:48:06;;;;;;;3.37;2.10;;;13.00;99.90;;;;;;5044962;28;20977;-73
2023/10/26 12:50:52;;;;;;;3.07;1.93;;;13.00;99.90;;;;;;5040640;28;20517;-73
2023/10/26 12:53:37;;;;;;;5.53;1.40;;;13.10;99.90;;;;;;5046132;28;20427;-74
2023/10/26 12:56:23;;;;;;;2.70;1.83;;;13.20;99.90;;;;;;5047631;28;20482;-73
2023/10/26 12:59:09;;;;;;;2.43;1.50;;;13.30;99.90;;;;;;5041326;28;20411;-73
2023/10/26 13:01:56;;;;;;;3.93;1.67;;;13.30;99.90;;;;;;5040049;28;20798;-73
2023/10/26 13:04:41;;;;;;;3.63;1.73;;;13.40;99.90;;;;;;5044771;28;20483;-73
2023/10/26 13:07:28;;;;;;;2.13;1.40;;;13.50;99.90;;;;;;5047651;28;20446;-73
2023/10/26 13:10:14;;;;;;;2.10;1.40;;;13.50;99.90;;;;;;5044281;28;20426;-73
2023/10/26 13:13:00;;;;;;;5.40;2.00;;;13.50;99.90;;;;;;5044932;28;20472;-74
2023/10/26 13:15:45;;;;;;;3.00;1.73;;;13.50;99.90;;;;;;5043944;28;20453;-73
2023/10/26 13:18:32;;;;;;;4.50;2.27;;;13.50;99.90;;;;;;5043789;28;20435;-73
2023/10/26 13:21:18;;;;;;;6.73;2.10;;;13.60;99.90;;;;;;5045248;28;20855;-73
2023/10/26 13:24:04;;;;;;;6.00;2.73;;;13.60;99.90;;;;;;5040219;28;20399;-74
2023/10/26 13:26:50;;;;;;;10.47;2.43;;;13.60;99.90;;;;;;5044567;28;20909;-73
2023/10/26 13:29:35;;;;;;;3.90;1.67;;;13.70;99.90;;;;;;5044243;28;20495;-73
2023/10/26 13:32:21;;;;;;;5.93;2.50;;;13.60;99.90;;;;;;5046827;28;20435;-73
2023/10/26 13:35:09;;;;;;;7.87;2.17;;;13.60;99.90;;;;;;5044590;28;20486;-74
2023/10/26 13:37:54;;;;;;;2.77;1.90;;;13.60;99.90;;;;;;5040692;28;20553;-73
2023/10/26 13:40:40;;;;;;;4.57;2.00;;;13.50;99.90;;;;;;5047777;28;20443;-74
2023/10/26 13:43:25;;;;;;;6.53;2.23;;;13.60;99.90;;;;;;5042666;28;20450;-74
2023/10/26 13:46:11;;;;;;;6.90;2.30;;;13.60;99.90;;;;;;5043520;28;20442;-73
2023/10/26 13:48:57;;;;;;;3.07;1.80;;;13.60;99.90;;;;;;5040903;28;20560;-73
2023/10/26 13:51:44;;;;;;;4.30;2.30;;;13.60;99.90;;;;;;5044854;28;20419;-74
2023/10/26 13:54:29;;;;;;;5.13;2.67;;;13.70;99.90;;;;;;5043235;28;20617;-73
2023/10/26 13:57:15;;;;;;;7.07;2.63;;;13.70;99.90;;;;;;5043025;28;20432;-73
2023/10/26 14:00:01;;;;;;;3.90;2.10;;;13.70;99.90;;;;;;5047655;28;20442;-74
2023/10/26 14:02:46;;;;;;;3.90;2.70;;;13.70;99.90;;;;;;5047798;28;20465;-74
2023/10/26 14:05:32;;;;;;;9.40;2.90;;;13.70;99.90;;;;;;5040263;28;20431;-74
2023/10/26 14:08:19;;;;;;;6.57;2.30;;;13.70;99.90;;;;;;5043753;28;20401;-73
2023/10/26 14:11:05;;;;;;;8.83;2.13;;;13.70;99.90;;;;;;5038970;28;20447;-74
2023/10/26 14:13:50;;;;;;;4.07;2.10;;;13.80;99.90;;;;;;5042702;28;20453;-74
2023/10/26 14:16:36;;;;;;;7.43;3.03;;;13.80;99.90;;;;;;5042872;28;20392;-73
2023/10/26 14:19:22;;;;;;;4.43;2.50;;;13.80;99.90;;;;;;5041776;28;20989;-74
2023/10/26 14:22:07;;;;;;;3.43;2.03;;;13.80;99.90;;;;;;5045378;28;21015;-72
2023/10/26 14:24:55;;;;;;;5.17;2.83;;;13.70;99.90;;;;;;5041676;28;20934;-74
2023/10/26 14:27:41;;;;;;;6.20;2.90;;;13.70;99.90;;;;;;5050262;28;20409;-74